sensor_id;sensor_type;location;lat;lon;timestamp;pressure;altitude;pressure_sealevel;temperature;humidity
4346;BME280;2186;49.866;7.986;2023-08-20T00:01:27;100578.34;;;23.85;100.00
4346;BME280;2186;49.866;7.986;2023-08-20T00:03:54;100576.56;;;23.84;100.00
4346;BME280;2186;49.866;7.986;2023-08-20T00:06:22;100581.41;;;23.80;100.00
4346;BME280;2186;49.866;7.986;2023-08-20T00:08:49;100584.22;;;23.79;100.00
4346;BME280;2186;49.866;7.986;2023-08-20T00:11:16;100586.56;;;23.61;100.00
4346;BME280;2186;49.866;7.986;2023-08-20T00:13:42;100578.53;;;23.59;100.00
4346;BME280;2186;49.866;7.986;2023-08-20T00:16:09;100585.56;;;23.62;100.00
4346;BME280;2186;49.866;7.986;2023-08-20T00:18:37;100589.94;;;23.52;100.00
4346;BME280;2186;49.866;7.986;2023-08-20T00:21:05;100586.00;;;23.45;100.00
4346;BME280;2186;49.866;7.986;2023-08-20T00:23:32;100583.72;;;23.39;100.00
4346;BME280;2186;49.866;7.986;2023-08-20T00:25:59;100592.13;;;23.35;100.00
4346;BME280;2186;49.866;7.986;2023-08-20T00:28:26;100585.22;;;23.31;100.00
4346;BME280;2186;49.866;7.986;2023-08-20T00:30:52;100590.63;;;23.31;100.00
4346;BME280;2186;49.866;7.986;2023-08-20T00:33:18;100590.47;;;23.22;100.00
4346;BME280;2186;49.866;7.986;2023-08-20T00:35:45;100590.63;;;23.31;100.00
4346;BME280;2186;49.866;7.986;2023-08-20T00:38:12;100599.22;;;23.25;100.00
4346;BME280;2186;49.866;7.986;2023-08-20T00:40:39;100591.78;;;23.16;100.00
4346;BME280;2186;49.866;7.986;2023-08-20T00:43:05;100595.09;;;23.09;100.00
4346;BME280;2186;49.866;7.986;2023-08-20T00:45:33;100588.69;;;23.10;100.00
4346;BME280;2186;49.866;7.986;2023-08-20T00:48:00;100586.84;;;23.10;100.00
4346;BME280;2186;49.866;7.986;2023-08-20T00:50:27;100579.63;;;22.98;100.00
4346;BME280;2186;49.866;7.986;2023-08-20T00:52:54;100581.84;;;22.93;100.00
4346;BME280;2186;49.866;7.986;2023-08-20T00:55:20;100579.88;;;22.95;100.00
4346;BME280;2186;49.866;7.986;2023-08-20T00:57:47;100581.84;;;22.93;100.00
4346;BME280;2186;49.866;7.986;2023-08-20T01:00:13;100577.53;;;23.01;100.00
4346;BME280;2186;49.866;7.986;2023-08-20T01:02:40;100572.09;;;22.90;100.00
4346;BME280;2186;49.866;7.986;2023-08-20T01:05:08;100573.94;;;22.90;100.00
4346;BME280;2186;49.866;7.986;2023-08-20T01:10:21;100566.78;;;22.52;100.00
4346;BME280;2186;49.866;7.986;2023-08-20T01:12:51;100555.34;;;22.60;100.00
4346;BME280;2186;49.866;7.986;2023-08-20T01:15:18;100552.09;;;22.67;100.00
4346;BME280;2186;49.866;7.986;2023-08-20T01:17:45;100554.84;;;22.79;100.00
4346;BME280;2186;49.866;7.986;2023-08-20T01:20:13;100552.38;;;22.75;100.00
4346;BME280;2186;49.866;7.986;2023-08-20T01:22:52;100557.19;;;22.59;100.00
4346;BME280;2186;49.866;7.986;2023-08-20T01:25:54;100559.41;;;22.54;100.00
4346;BME280;2186;49.866;7.986;2023-08-20T01:28:27;100562.47;;;22.50;100.00
4346;BME280;2186;49.866;7.986;2023-08-20T01:30:55;100571.34;;;22.52;100.00
4346;BME280;2186;49.866;7.986;2023-08-20T01:33:23;100575.41;;;22.57;100.00
4346;BME280;2186;49.866;7.986;2023-08-20T01:35:54;100580.75;;;22.46;100.00
4346;BME280;2186;49.866;7.986;2023-08-20T01:38:21;100578.47;;;22.53;100.00
4346;BME280;2186;49.866;7.986;2023-08-20T01:40:48;100576.16;;;22.35;100.00
4346;BME280;2186;49.866;7.986;2023-08-20T01:43:15;100582.72;;;22.44;100.00
4346;BME280;2186;49.866;7.986;2023-08-20T01:45:42;100582.84;;;22.42;100.00
4346;BME280;2186;49.866;7.986;2023-08-20T01:48:10;100587.66;;;22.26;100.00
4346;BME280;2186;49.866;7.986;2023-08-20T01:50:36;100589.50;;;22.26;100.00
4346;BME280;2186;49.866;7.986;2023-08-20T01:53:03;100599.22;;;22.28;100.00
4346;BME280;2186;49.866;7.986;2023-08-20T01:55:29;100606.69;;;21.99;100.00
4346;BME280;2186;49.866;7.986;2023-08-20T01:57:58;100603.88;;;22.01;100.00
4346;BME280;2186;49.866;7.986;2023-08-20T02:00:24;100604.63;;;21.90;100.00
4346;BME280;2186;49.866;7.986;2023-08-20T02:02:51;100608.31;;;22.02;100.00
4346;BME280;2186;49.866;7.986;2023-08-20T02:05:17;100608.34;;;22.14;100.00
4346;BME280;2186;49.866;7.986;2023-08-20T02:07:44;100607.34;;;22.03;100.00
4346;BME280;2186;49.866;7.986;2023-08-20T02:10:10;100611.69;;;22.05;100.00
4346;BME280;2186;49.866;7.986;2023-08-20T02:12:36;100612.88;;;22.01;100.00
4346;BME280;2186;49.866;7.986;2023-08-20T02:15:03;100606.97;;;22.09;100.00
4346;BME280;2186;49.866;7.986;2023-08-20T02:17:30;100606.19;;;21.94;100.00
4346;BME280;2186;49.866;7.986;2023-08-20T02:19:56;100610.63;;;21.95;100.00
4346;BME280;2186;49.866;7.986;2023-08-20T02:22:23;100595.88;;;21.86;100.00
4346;BME280;2186;49.866;7.986;2023-08-20T02:24:49;100600.84;;;21.93;100.00
4346;BME280;2186;49.866;7.986;2023-08-20T02:27:16;100600.19;;;21.89;100.00
4346;BME280;2186;49.866;7.986;2023-08-20T02:29:42;100603.97;;;21.74;100.00
4346;BME280;2186;49.866;7.986;2023-08-20T02:32:09;100603.75;;;21.77;100.00
4346;BME280;2186;49.866;7.986;2023-08-20T02:34:35;100610.59;;;21.82;100.00
4346;BME280;2186;49.866;7.986;2023-08-20T02:37:01;100606.06;;;21.83;100.00
4346;BME280;2186;49.866;7.986;2023-08-20T02:39:28;100596.22;;;21.82;100.00
4346;BME280;2186;49.866;7.986;2023-08-20T02:41:54;100598.56;;;21.86;100.00
4346;BME280;2186;49.866;7.986;2023-08-20T02:44:21;100595.75;;;21.88;100.00
4346;BME280;2186;49.866;7.986;2023-08-20T02:46:47;100599.84;;;21.43;100.00
4346;BME280;2186;49.866;7.986;2023-08-20T02:49:13;100599.44;;;21.62;100.00
4346;BME280;2186;49.866;7.986;2023-08-20T02:51:43;100592.06;;;21.64;100.00
4346;BME280;2186;49.866;7.986;2023-08-20T02:54:09;100601.16;;;21.75;100.00
4346;BME280;2186;49.866;7.986;2023-08-20T02:56:36;100595.34;;;21.81;100.00
4346;BME280;2186;49.866;7.986;2023-08-20T02:59:02;100588.19;;;21.80;100.00
4346;BME280;2186;49.866;7.986;2023-08-20T03:01:29;100586.03;;;21.73;100.00
4346;BME280;2186;49.866;7.986;2023-08-20T03:03:58;100586.44;;;21.92;100.00
4346;BME280;2186;49.866;7.986;2023-08-20T03:06:24;100585.03;;;21.86;100.00
4346;BME280;2186;49.866;7.986;2023-08-20T03:08:51;100579.97;;;21.95;100.00
4346;BME280;2186;49.866;7.986;2023-08-20T03:11:17;100577.78;;;21.87;100.00
4346;BME280;2186;49.866;7.986;2023-08-20T03:13:44;100574.34;;;21.85;100.00
4346;BME280;2186;49.866;7.986;2023-08-20T03:16:11;100576.69;;;21.89;100.00
4346;BME280;2186;49.866;7.986;2023-08-20T03:18:37;100578.78;;;21.86;100.00
4346;BME280;2186;49.866;7.986;2023-08-20T03:21:04;100576.81;;;21.75;100.00
4346;BME280;2186;49.866;7.986;2023-08-20T03:23:30;100587.09;;;21.57;100.00
4346;BME280;2186;49.866;7.986;2023-08-20T03:25:58;100590.03;;;21.54;100.00
4346;BME280;2186;49.866;7.986;2023-08-20T03:28:24;100598.09;;;21.42;100.00
4346;BME280;2186;49.866;7.986;2023-08-20T03:30:51;100598.25;;;21.53;100.00
4346;BME280;2186;49.866;7.986;2023-08-20T03:33:17;100591.19;;;21.50;100.00
4346;BME280;2186;49.866;7.986;2023-08-20T03:35:45;100594.88;;;21.49;100.00
4346;BME280;2186;49.866;7.986;2023-08-20T03:38:12;100598.53;;;21.48;100.00
4346;BME280;2186;49.866;7.986;2023-08-20T03:40:38;100596.59;;;21.50;100.00
4346;BME280;2186;49.866;7.986;2023-08-20T03:43:04;100598.44;;;21.50;100.00
4346;BME280;2186;49.866;7.986;2023-08-20T03:45:31;100591.53;;;21.58;100.00
4346;BME280;2186;49.866;7.986;2023-08-20T03:47:57;100593.72;;;21.66;100.00
4346;BME280;2186;49.866;7.986;2023-08-20T03:50:24;100599.09;;;21.53;100.00
4346;BME280;2186;49.866;7.986;2023-08-20T03:52:50;100602.66;;;21.41;100.00
4346;BME280;2186;49.866;7.986;2023-08-20T03:55:17;100598.53;;;21.48;100.00
4346;BME280;2186;49.866;7.986;2023-08-20T03:57:43;100596.34;;;21.28;100.00
4346;BME280;2186;49.866;7.986;2023-08-20T04:00:10;100608.25;;;21.25;100.00
4346;BME280;2186;49.866;7.986;2023-08-20T04:02:38;100613.97;;;21.34;100.00
4346;BME280;2186;49.866;7.986;2023-08-20T04:05:05;100619.09;;;21.38;100.00
4346;BME280;2186;49.866;7.986;2023-08-20T04:07:31;100618.78;;;21.43;100.00
4346;BME280;2186;49.866;7.986;2023-08-20T04:09:57;100631.53;;;21.41;100.00
4346;BME280;2186;49.866;7.986;2023-08-20T04:12:24;100622.53;;;21.27;100.00
4346;BME280;2186;49.866;7.986;2023-08-20T04:14:50;100630.22;;;21.34;100.00
4346;BME280;2186;49.866;7.986;2023-08-20T04:17:17;100631.50;;;21.28;100.00
4346;BME280;2186;49.866;7.986;2023-08-20T04:19:43;100636.09;;;21.40;100.00
4346;BME280;2186;49.866;7.986;2023-08-20T04:22:09;100634.69;;;21.47;100.00
4346;BME280;2186;49.866;7.986;2023-08-20T04:24:36;100631.75;;;21.50;100.00
4346;BME280;2186;49.866;7.986;2023-08-20T04:27:02;100635.75;;;21.45;100.00
4346;BME280;2186;49.866;7.986;2023-08-20T04:29:29;100638.28;;;21.61;100.00
4346;BME280;2186;49.866;7.986;2023-08-20T04:31:55;100642.47;;;21.39;100.00
4346;BME280;2186;49.866;7.986;2023-08-20T04:34:22;100638.91;;;21.39;100.00
4346;BME280;2186;49.866;7.986;2023-08-20T04:36:48;100637.16;;;21.23;100.00
4346;BME280;2186;49.866;7.986;2023-08-20T04:39:15;100635.66;;;21.19;100.00
4346;BME280;2186;49.866;7.986;2023-08-20T04:41:41;100643.94;;;21.31;100.00
4346;BME280;2186;49.866;7.986;2023-08-20T04:44:07;100635.75;;;21.45;100.00
4346;BME280;2186;49.866;7.986;2023-08-20T04:46:34;100644.97;;;21.42;100.00
4346;BME280;2186;49.866;7.986;2023-08-20T04:49:00;100647.56;;;21.44;100.00
4346;BME280;2186;49.866;7.986;2023-08-20T04:51:27;100648.53;;;21.43;100.00
4346;BME280;2186;49.866;7.986;2023-08-20T04:53:53;100646.06;;;21.52;100.00
4346;BME280;2186;49.866;7.986;2023-08-20T04:56:20;100653.00;;;21.56;100.00
4346;BME280;2186;49.866;7.986;2023-08-20T04:58:46;100651.91;;;21.59;100.00
4346;BME280;2186;49.866;7.986;2023-08-20T05:01:12;100649.97;;;21.61;100.00
4346;BME280;2186;49.866;7.986;2023-08-20T05:03:39;100648.78;;;21.52;100.00
4346;BME280;2186;49.866;7.986;2023-08-20T05:06:06;100647.50;;;21.71;100.00
4346;BME280;2186;49.866;7.986;2023-08-20T05:08:32;100650.34;;;21.82;100.00
4346;BME280;2186;49.866;7.986;2023-08-20T05:10:58;100649.69;;;21.91;100.00
4346;BME280;2186;49.866;7.986;2023-08-20T05:13:25;100655.13;;;22.29;100.00
4346;BME280;2186;49.866;7.986;2023-08-20T05:15:51;100656.63;;;22.33;100.00
4346;BME280;2186;49.866;7.986;2023-08-20T05:18:18;100660.88;;;22.25;100.00
4346;BME280;2186;49.866;7.986;2023-08-20T05:20:44;100655.75;;;22.45;100.00
4346;BME280;2186;49.866;7.986;2023-08-20T05:23:11;100661.06;;;22.47;100.00
4346;BME280;2186;49.866;7.986;2023-08-20T05:25:37;100664.75;;;22.33;100.00
4346;BME280;2186;49.866;7.986;2023-08-20T05:28:03;100665.63;;;22.46;100.00
4346;BME280;2186;49.866;7.986;2023-08-20T05:30:30;100673.34;;;22.40;100.00
4346;BME280;2186;49.866;7.986;2023-08-20T05:32:56;100680.13;;;22.45;100.00
4346;BME280;2186;49.866;7.986;2023-08-20T05:35:23;100672.69;;;22.36;100.00
4346;BME280;2186;49.866;7.986;2023-08-20T05:37:49;100669.00;;;22.50;100.00
4346;BME280;2186;49.866;7.986;2023-08-20T05:40:16;100682.41;;;22.64;100.00
4346;BME280;2186;49.866;7.986;2023-08-20T05:42:42;100689.34;;;22.56;100.00
4346;BME280;2186;49.866;7.986;2023-08-20T05:45:09;100687.72;;;22.66;100.00
4346;BME280;2186;49.866;7.986;2023-08-20T05:47:35;100682.91;;;22.82;100.00
4346;BME280;2186;49.866;7.986;2023-08-20T05:50:03;100680.81;;;22.98;100.00
4346;BME280;2186;49.866;7.986;2023-08-20T05:52:29;100686.00;;;23.01;100.00
4346;BME280;2186;49.866;7.986;2023-08-20T05:54:56;100680.28;;;23.06;100.00
4346;BME280;2186;49.866;7.986;2023-08-20T05:57:22;100681.28;;;23.16;100.00
4346;BME280;2186;49.866;7.986;2023-08-20T05:59:49;100683.03;;;23.41;100.00
4346;BME280;2186;49.866;7.986;2023-08-20T06:02:16;100687.28;;;23.80;100.00
4346;BME280;2186;49.866;7.986;2023-08-20T06:04:44;100686.75;;;24.10;100.00
4346;BME280;2186;49.866;7.986;2023-08-20T06:07:11;100688.16;;;24.27;100.00
4346;BME280;2186;49.866;7.986;2023-08-20T06:09:37;100688.25;;;24.14;99.46
4346;BME280;2186;49.866;7.986;2023-08-20T06:12:03;100683.31;;;24.19;98.89
4346;BME280;2186;49.866;7.986;2023-08-20T06:14:30;100697.44;;;24.36;98.01
4346;BME280;2186;49.866;7.986;2023-08-20T06:16:56;100694.09;;;24.32;98.93
4346;BME280;2186;49.866;7.986;2023-08-20T06:19:23;100694.91;;;24.21;100.00
4346;BME280;2186;49.866;7.986;2023-08-20T06:21:49;100696.97;;;23.96;100.00
4346;BME280;2186;49.866;7.986;2023-08-20T06:24:16;100700.41;;;23.86;100.00
4346;BME280;2186;49.866;7.986;2023-08-20T06:26:42;100703.00;;;23.88;100.00
4346;BME280;2186;49.866;7.986;2023-08-20T06:29:11;100703.63;;;23.91;100.00
4346;BME280;2186;49.866;7.986;2023-08-20T06:31:37;100715.63;;;24.00;100.00
4346;BME280;2186;49.866;7.986;2023-08-20T06:34:05;100710.94;;;24.02;100.00
4346;BME280;2186;49.866;7.986;2023-08-20T06:36:31;100708.31;;;23.89;100.00
4346;BME280;2186;49.866;7.986;2023-08-20T06:38:57;100711.81;;;24.03;100.00
4346;BME280;2186;49.866;7.986;2023-08-20T06:41:24;100705.59;;;23.89;100.00
4346;BME280;2186;49.866;7.986;2023-08-20T06:43:50;100703.75;;;23.90;100.00
4346;BME280;2186;49.866;7.986;2023-08-20T06:46:17;100699.56;;;23.97;100.00
4346;BME280;2186;49.866;7.986;2023-08-20T06:48:43;100697.56;;;23.88;100.00
4346;BME280;2186;49.866;7.986;2023-08-20T06:51:14;100698.69;;;23.97;100.00
4346;BME280;2186;49.866;7.986;2023-08-20T06:53:42;100694.75;;;24.12;100.00
4346;BME280;2186;49.866;7.986;2023-08-20T06:56:09;100697.03;;;24.29;100.00
4346;BME280;2186;49.866;7.986;2023-08-20T06:58:35;100705.41;;;24.15;100.00
4346;BME280;2186;49.866;7.986;2023-08-20T07:01:02;100702.63;;;24.39;100.00
4346;BME280;2186;49.866;7.986;2023-08-20T07:03:38;100709.19;;;24.70;99.86
4346;BME280;2186;49.866;7.986;2023-08-20T07:06:05;100709.56;;;24.76;99.18
4346;BME280;2186;49.866;7.986;2023-08-20T07:08:32;100718.09;;;25.05;99.12
4346;BME280;2186;49.866;7.986;2023-08-20T07:10:59;100711.41;;;24.76;99.72
4346;BME280;2186;49.866;7.986;2023-08-20T07:13:25;100715.88;;;25.10;99.06
4346;BME280;2186;49.866;7.986;2023-08-20T07:15:52;100715.94;;;25.20;99.61
4346;BME280;2186;49.866;7.986;2023-08-20T07:18:18;100722.59;;;25.50;98.35
4346;BME280;2186;49.866;7.986;2023-08-20T07:20:45;100723.25;;;25.20;99.17
4346;BME280;2186;49.866;7.986;2023-08-20T07:23:12;100720.19;;;25.56;98.22
4346;BME280;2186;49.866;7.986;2023-08-20T07:25:41;100725.94;;;25.42;98.75
4346;BME280;2186;49.866;7.986;2023-08-20T07:28:08;100728.38;;;25.45;98.92
4346;BME280;2186;49.866;7.986;2023-08-20T07:30:35;100727.31;;;25.36;98.58
4346;BME280;2186;49.866;7.986;2023-08-20T07:33:06;100723.78;;;25.89;97.71
4346;BME280;2186;49.866;7.986;2023-08-20T07:35:33;100730.03;;;25.80;97.74
4346;BME280;2186;49.866;7.986;2023-08-20T07:37:59;100725.31;;;26.03;96.23
4346;BME280;2186;49.866;7.986;2023-08-20T07:40:26;100728.00;;;25.93;96.31
4346;BME280;2186;49.866;7.986;2023-08-20T07:42:52;100728.31;;;25.79;97.30
4346;BME280;2186;49.866;7.986;2023-08-20T07:45:19;100721.31;;;25.86;96.57
4346;BME280;2186;49.866;7.986;2023-08-20T07:47:45;100722.72;;;26.01;95.80
4346;BME280;2186;49.866;7.986;2023-08-20T07:50:12;100724.72;;;25.99;95.61
4346;BME280;2186;49.866;7.986;2023-08-20T07:52:38;100721.28;;;26.18;94.92
4346;BME280;2186;49.866;7.986;2023-08-20T07:55:05;100718.34;;;26.31;95.35
4346;BME280;2186;49.866;7.986;2023-08-20T07:57:31;100723.94;;;26.50;94.38
4346;BME280;2186;49.866;7.986;2023-08-20T07:59:58;100721.03;;;26.42;93.77
4346;BME280;2186;49.866;7.986;2023-08-20T08:02:24;100719.22;;;26.52;93.02
4346;BME280;2186;49.866;7.986;2023-08-20T08:04:51;100721.66;;;26.55;92.62
4346;BME280;2186;49.866;7.986;2023-08-20T08:07:17;100720.94;;;26.53;93.00
4346;BME280;2186;49.866;7.986;2023-08-20T08:09:43;100719.72;;;26.67;92.37
4346;BME280;2186;49.866;7.986;2023-08-20T08:12:11;100720.94;;;26.83;90.27
4346;BME280;2186;49.866;7.986;2023-08-20T08:14:38;100715.66;;;26.92;90.99
4346;BME280;2186;49.866;7.986;2023-08-20T08:17:04;100723.97;;;26.90;91.97
4346;BME280;2186;49.866;7.986;2023-08-20T08:19:31;100721.38;;;27.19;91.52
4346;BME280;2186;49.866;7.986;2023-08-20T08:21:57;100721.84;;;27.43;88.96
4346;BME280;2186;49.866;7.986;2023-08-20T08:24:24;100721.94;;;27.23;90.34
4346;BME280;2186;49.866;7.986;2023-08-20T08:26:50;100722.53;;;27.36;89.48
4346;BME280;2186;49.866;7.986;2023-08-20T08:29:17;100728.31;;;27.42;88.54
4346;BME280;2186;49.866;7.986;2023-08-20T08:31:43;100728.16;;;27.34;88.29
4346;BME280;2186;49.866;7.986;2023-08-20T08:34:09;100727.91;;;27.66;88.52
4346;BME280;2186;49.866;7.986;2023-08-20T08:36:36;100726.31;;;27.44;88.92
4346;BME280;2186;49.866;7.986;2023-08-20T08:39:04;100724.63;;;27.72;88.69
4346;BME280;2186;49.866;7.986;2023-08-20T08:41:31;100727.31;;;27.53;88.85
4346;BME280;2186;49.866;7.986;2023-08-20T08:44:00;100726.44;;;28.20;87.77
4346;BME280;2186;49.866;7.986;2023-08-20T08:46:27;100723.88;;;28.28;87.01
4346;BME280;2186;49.866;7.986;2023-08-20T08:48:54;100730.47;;;28.36;87.19
4346;BME280;2186;49.866;7.986;2023-08-20T08:51:20;100732.25;;;28.27;86.13
4346;BME280;2186;49.866;7.986;2023-08-20T08:53:47;100729.91;;;28.32;86.37
4346;BME280;2186;49.866;7.986;2023-08-20T08:56:14;100731.06;;;28.20;85.01
4346;BME280;2186;49.866;7.986;2023-08-20T08:58:40;100730.41;;;28.65;84.86
4346;BME280;2186;49.866;7.986;2023-08-20T09:01:07;100732.19;;;28.93;83.61
4346;BME280;2186;49.866;7.986;2023-08-20T09:03:33;100727.63;;;28.74;83.40
4346;BME280;2186;49.866;7.986;2023-08-20T09:06:01;100729.03;;;28.88;83.55
4346;BME280;2186;49.866;7.986;2023-08-20T09:08:30;100733.41;;;29.08;83.31
4346;BME280;2186;49.866;7.986;2023-08-20T09:11:00;100729.59;;;28.91;83.77
4346;BME280;2186;49.866;7.986;2023-08-20T09:13:34;100725.72;;;29.39;79.38
4346;BME280;2186;49.866;7.986;2023-08-20T09:16:04;100730.81;;;29.34;79.37
4346;BME280;2186;49.866;7.986;2023-08-20T09:18:33;100729.16;;;29.41;79.99
4346;BME280;2186;49.866;7.986;2023-08-20T09:21:06;100728.28;;;29.23;80.49
4346;BME280;2186;49.866;7.986;2023-08-20T09:23:32;100736.81;;;29.47;79.49
4346;BME280;2186;49.866;7.986;2023-08-20T09:26:01;100729.84;;;29.26;81.15
4346;BME280;2186;49.866;7.986;2023-08-20T09:28:28;100725.00;;;29.65;79.40
4346;BME280;2186;49.866;7.986;2023-08-20T09:30:58;100736.81;;;29.83;78.82
4346;BME280;2186;49.866;7.986;2023-08-20T09:33:27;100734.47;;;29.70;79.89
4346;BME280;2186;49.866;7.986;2023-08-20T09:35:54;100733.84;;;29.94;77.83
4346;BME280;2186;49.866;7.986;2023-08-20T09:38:23;100738.84;;;29.81;77.66
4346;BME280;2186;49.866;7.986;2023-08-20T09:40:52;100736.97;;;29.82;76.83
4346;BME280;2186;49.866;7.986;2023-08-20T09:43:25;100740.66;;;30.08;74.91
4346;BME280;2186;49.866;7.986;2023-08-20T09:45:55;100734.47;;;30.06;75.13
4346;BME280;2186;49.866;7.986;2023-08-20T09:48:27;100735.09;;;30.18;75.36
4346;BME280;2186;49.866;7.986;2023-08-20T09:50:59;100735.47;;;29.87;75.74
4346;BME280;2186;49.866;7.986;2023-08-20T09:53:36;100722.41;;;30.17;74.45
4346;BME280;2186;49.866;7.986;2023-08-20T09:56:09;100727.66;;;29.74;75.54
4346;BME280;2186;49.866;7.986;2023-08-20T09:58:40;100726.13;;;30.33;75.92
4346;BME280;2186;49.866;7.986;2023-08-20T10:01:07;100725.88;;;30.27;76.08
4346;BME280;2186;49.866;7.986;2023-08-20T10:03:34;100728.88;;;30.59;74.47
4346;BME280;2186;49.866;7.986;2023-08-20T10:06:02;100716.00;;;30.60;72.12
4346;BME280;2186;49.866;7.986;2023-08-20T10:08:30;100721.09;;;30.29;73.05
4346;BME280;2186;49.866;7.986;2023-08-20T10:10:56;100709.25;;;30.54;72.62
4346;BME280;2186;49.866;7.986;2023-08-20T10:13:23;100724.66;;;30.21;73.19
4346;BME280;2186;49.866;7.986;2023-08-20T10:15:50;100722.88;;;30.12;71.88
4346;BME280;2186;49.866;7.986;2023-08-20T10:18:19;100716.84;;;29.91;71.96
4346;BME280;2186;49.866;7.986;2023-08-20T10:20:46;100721.06;;;30.47;72.65
4346;BME280;2186;49.866;7.986;2023-08-20T10:23:12;100722.09;;;30.72;72.44
4346;BME280;2186;49.866;7.986;2023-08-20T10:25:42;100720.47;;;30.35;71.69
4346;BME280;2186;49.866;7.986;2023-08-20T10:28:19;100725.72;;;30.80;69.88
4346;BME280;2186;49.866;7.986;2023-08-20T10:31:09;100719.84;;;31.01;70.17
4346;BME280;2186;49.866;7.986;2023-08-20T10:36:17;100714.97;;;30.87;67.64
4346;BME280;2186;49.866;7.986;2023-08-20T10:38:55;100711.59;;;30.67;68.38
4346;BME280;2186;49.866;7.986;2023-08-20T10:41:26;100716.63;;;30.72;67.15
4346;BME280;2186;49.866;7.986;2023-08-20T10:43:57;100712.41;;;30.85;68.80
4346;BME280;2186;49.866;7.986;2023-08-20T10:46:25;100713.25;;;30.86;67.52
4346;BME280;2186;49.866;7.986;2023-08-20T10:49:02;100716.91;;;30.69;67.27
4346;BME280;2186;49.866;7.986;2023-08-20T10:51:32;100714.97;;;30.61;68.72
4346;BME280;2186;49.866;7.986;2023-08-20T10:56:45;100707.59;;;30.95;66.94
4346;BME280;2186;49.866;7.986;2023-08-20T10:59:22;100704.84;;;30.87;68.81
4346;BME280;2186;49.866;7.986;2023-08-20T11:01:51;100709.25;;;31.14;67.75
4346;BME280;2186;49.866;7.986;2023-08-20T11:04:20;100709.25;;;31.14;65.72
4346;BME280;2186;49.866;7.986;2023-08-20T11:06:51;100709.28;;;31.22;66.33
4346;BME280;2186;49.866;7.986;2023-08-20T11:09:21;100711.22;;;31.30;66.36
4346;BME280;2186;49.866;7.986;2023-08-20T11:11:48;100709.66;;;31.36;66.40
4346;BME280;2186;49.866;7.986;2023-08-20T11:14:15;100705.03;;;31.36;66.70
4346;BME280;2186;49.866;7.986;2023-08-20T11:16:42;100713.47;;;31.43;67.44
4346;BME280;2186;49.866;7.986;2023-08-20T11:19:13;100715.03;;;31.62;64.98
4346;BME280;2186;49.866;7.986;2023-08-20T11:21:40;100710.03;;;31.41;65.30
4346;BME280;2186;49.866;7.986;2023-08-20T11:24:08;100718.94;;;31.35;65.01
4346;BME280;2186;49.866;7.986;2023-08-20T11:26:38;100713.72;;;31.15;66.50
4346;BME280;2186;49.866;7.986;2023-08-20T11:29:13;100709.84;;;31.50;64.41
4346;BME280;2186;49.866;7.986;2023-08-20T11:31:40;100712.97;;;31.56;63.17
4346;BME280;2186;49.866;7.986;2023-08-20T11:34:07;100710.63;;;31.77;62.54
4346;BME280;2186;49.866;7.986;2023-08-20T11:36:34;100706.78;;;31.62;63.83
4346;BME280;2186;49.866;7.986;2023-08-20T11:39:01;100710.53;;;31.36;63.27
4346;BME280;2186;49.866;7.986;2023-08-20T11:41:28;100714.72;;;31.73;63.10
4346;BME280;2186;49.866;7.986;2023-08-20T11:43:55;100706.81;;;31.53;62.61
4346;BME280;2186;49.866;7.986;2023-08-20T11:46:23;100710.22;;;31.56;63.25
4346;BME280;2186;49.866;7.986;2023-08-20T11:49:04;100710.97;;;31.74;62.54
4346;BME280;2186;49.866;7.986;2023-08-20T11:51:41;100703.84;;;31.39;60.56
4346;BME280;2186;49.866;7.986;2023-08-20T11:54:10;100709.53;;;31.45;60.69
4346;BME280;2186;49.866;7.986;2023-08-20T11:56:47;100707.13;;;31.50;62.18
4346;BME280;2186;49.866;7.986;2023-08-20T11:59:16;100699.97;;;31.82;61.02
4346;BME280;2186;49.866;7.986;2023-08-20T12:01:43;100702.53;;;32.16;58.57
4346;BME280;2186;49.866;7.986;2023-08-20T12:04:10;100698.41;;;32.04;58.54
4346;BME280;2186;49.866;7.986;2023-08-20T12:06:37;100702.16;;;31.70;59.26
4346;BME280;2186;49.866;7.986;2023-08-20T12:09:21;100694.31;;;31.83;59.05
4346;BME280;2186;49.866;7.986;2023-08-20T12:11:52;100695.50;;;31.97;60.15
4346;BME280;2186;49.866;7.986;2023-08-20T12:14:19;100688.28;;;32.12;58.34
4346;BME280;2186;49.866;7.986;2023-08-20T12:16:46;100691.03;;;32.29;59.10
4346;BME280;2186;49.866;7.986;2023-08-20T12:19:13;100686.56;;;32.03;58.43
4346;BME280;2186;49.866;7.986;2023-08-20T12:21:42;100686.38;;;32.13;55.81
4346;BME280;2186;49.866;7.986;2023-08-20T12:24:10;100679.47;;;32.25;58.14
4346;BME280;2186;49.866;7.986;2023-08-20T12:26:37;100680.50;;;32.49;57.95
4346;BME280;2186;49.866;7.986;2023-08-20T12:29:04;100673.59;;;32.45;57.26
4346;BME280;2186;49.866;7.986;2023-08-20T12:31:34;100665.91;;;32.32;56.48
4346;BME280;2186;49.866;7.986;2023-08-20T12:34:01;100671.22;;;32.41;54.30
4346;BME280;2186;49.866;7.986;2023-08-20T12:36:27;100668.19;;;31.96;54.25
4346;BME280;2186;49.866;7.986;2023-08-20T12:38:54;100672.44;;;32.31;54.65
4346;BME280;2186;49.866;7.986;2023-08-20T12:41:21;100664.91;;;32.08;53.75
4346;BME280;2186;49.866;7.986;2023-08-20T12:43:47;100667.97;;;32.13;57.39
4346;BME280;2186;49.866;7.986;2023-08-20T12:46:14;100662.66;;;32.12;57.29
4346;BME280;2186;49.866;7.986;2023-08-20T12:48:40;100667.28;;;32.11;53.59
4346;BME280;2186;49.866;7.986;2023-08-20T12:51:07;100660.22;;;32.25;54.05
4346;BME280;2186;49.866;7.986;2023-08-20T12:53:34;100667.25;;;32.20;54.05
4346;BME280;2186;49.866;7.986;2023-08-20T12:56:03;100663.34;;;31.90;51.89
4346;BME280;2186;49.866;7.986;2023-08-20T12:58:30;100654.25;;;31.97;54.49
4346;BME280;2186;49.866;7.986;2023-08-20T13:00:56;100659.38;;;32.17;55.93
4346;BME280;2186;49.866;7.986;2023-08-20T13:03:23;100650.78;;;32.36;56.19
4346;BME280;2186;49.866;7.986;2023-08-20T13:05:50;100646.63;;;32.32;55.23
4346;BME280;2186;49.866;7.986;2023-08-20T13:08:17;100649.75;;;32.29;54.60
4346;BME280;2186;49.866;7.986;2023-08-20T13:10:50;100654.03;;;32.39;54.72
4346;BME280;2186;49.866;7.986;2023-08-20T13:13:21;100653.53;;;32.11;54.12
4346;BME280;2186;49.866;7.986;2023-08-20T13:15:49;100648.53;;;32.39;54.56